BM-0001 weather

CLOSED RNAS Boaz Island
Boaz Island, Bermuda

Public forecast

Using degrees Celsius for public forecast. Weather courtesy of forecast.io.

METAR (pilot weather report)

Closest report is L.F. Wade International International Airport, 8.6 nm (16.0 km) ENE. Retrieved 2019/04/22 10:55 UTC (45 minutes ago):

TXKF 221055Z 14010KT 9999 FEW030 BKN300 21/15 Q1024

TAF (pilot weather forecast)

Closest forecast is L.F. Wade International International Airport, 8.6 nm (16.0 km) ENE. Retrieved 2019/04/22 06:39 UTC (5 hours ago):

TAF TAF TXKF 220534Z 2206/2306 13012KT 9999 FEW025 BKN300